Little Diomede, Alaska
Current Conditions -  °F | °C
As of 9:58 PM on Sunday 21 Dec 2014 (Local Time) from PATE Reporting Station
Overcast Overcast  
Wind Chill: -17°   Ceiling: 2700
Heat Index:   Visibility: 10mi
Dew Point:   Wind: 21mph
Humidity: 91%   Direction: 350°N
Pressure: 29.76"   Gusts: NA
Location:  65.1617°N, 164.975°W
Report Text: PATE 220658Z AUTO 35018KT 10SM OVC027 M16/M17 A2976 RMK AO2 SLP090 T11561167 FZRANO
Loading
Personal Weather Stations






























Interactive Weather Map New forecast layout! Learn more

10-Day Weather Forecast

Advertisements
Track Severe Weather on mobile